Time;durP1;ratioP1;P1;durP2;ratioP2;P2;SDS_P1;SDS_P2;PMS_P1;PMS_P2;Temp;Humidity;BMP_temperature;BMP_pressure;BME280_temperature;BME280_humidity;BME280_pressure;Samples;Min_cycle;Max_cycle;Signal;HPM_P1;HPM_P2
2021/12/14 00:01:02;;;;;;;12.10;10.52;;;;;;;-145.45;100.00;62759.84;5240633;28;20062;-88
2021/12/14 00:03:34;;;;;;;15.13;9.95;;;;;;;-145.45;100.00;62759.84;5240931;28;20022;-88
2021/12/14 00:06:07;;;;;;;13.43;10.15;;;;;;;-145.45;100.00;62759.84;5242529;28;20044;-88
2021/12/14 00:08:50;;;;;;;12.00;10.15;;;;;;;-145.45;100.00;62759.84;5229806;28;20037;-88
2021/12/14 00:15:02;;;;;;;11.55;10.35;;;;;;;-145.45;100.00;62759.84;5241189;28;20368;-88
2021/12/14 00:17:26;;;;;;;13.75;10.40;;;;;;;-145.45;100.00;62759.84;5240559;28;20038;-88
2021/12/14 00:25:37;;;;;;;13.77;10.52;;;;;;;-145.45;100.00;62759.84;5242346;28;20505;-88
2021/12/14 00:28:20;;;;;;;13.27;9.98;;;;;;;-145.45;100.00;62759.84;5241957;28;20084;-88
2021/12/14 00:30:56;;;;;;;14.70;9.57;;;;;;;-145.45;100.00;62759.84;5243203;28;20041;-88
2021/12/14 00:33:32;;;;;;;10.93;9.60;;;;;;;-145.45;100.00;62759.84;5222178;28;20037;-88
2021/12/14 00:36:10;;;;;;;10.07;9.05;;;;;;;-145.45;100.00;62759.84;5240356;28;20084;-89
2021/12/14 00:38:45;;;;;;;11.05;9.65;;;;;;;-145.45;100.00;62759.84;5256008;28;20030;-89
2021/12/14 00:41:23;;;;;;;12.32;10.60;;;;;;;-145.45;100.00;62759.84;5242090;28;20094;-88
2021/12/14 00:43:55;;;;;;;12.25;10.95;;;;;;;-145.45;100.00;62759.84;5239711;28;20419;-88
2021/12/14 00:46:26;;;;;;;15.35;11.40;;;;;;;-145.45;100.00;62759.84;5248138;28;20076;-87
2021/12/14 00:49:03;;;;;;;13.35;10.85;;;;;;;-145.45;100.00;62759.84;5265367;28;20142;-88
2021/12/14 00:51:34;;;;;;;;;;;;;;;-145.45;100.00;62759.84;5265784;28;20058;-88
2021/12/14 00:54:12;;;;;;;11.98;10.75;;;;;;;-145.45;100.00;62759.84;5254446;28;19977;-88
2021/12/14 00:56:46;;;;;;;11.75;10.55;;;;;;;-145.45;100.00;62759.84;5250777;28;20043;-88
2021/12/14 00:59:20;;;;;;;19.77;11.27;;;;;;;-145.45;100.00;62759.84;5264450;28;20066;-87
2021/12/14 01:01:54;;;;;;;13.27;10.73;;;;;;;-145.45;100.00;62759.84;5249232;28;20098;-88
2021/12/14 01:04:31;;;;;;;12.85;11.40;;;;;;;-145.45;100.00;62759.84;5256741;28;20071;-88
2021/12/14 01:07:16;;;;;;;14.65;10.70;;;;;;;-145.45;100.00;62759.84;5255202;28;20033;-88
2021/12/14 01:09:50;;;;;;;15.18;10.70;;;;;;;-145.45;100.00;62759.84;5250493;28;20026;-87
2021/12/14 01:12:40;;;;;;;12.52;11.00;;;;;;;-145.45;100.00;62759.84;5252970;28;20038;-87
2021/12/14 01:15:31;;;;;;;11.93;10.60;;;;;;;-145.45;100.00;62759.84;5265605;28;20045;-88
2021/12/14 01:18:31;;;;;;;14.20;11.70;;;;;;;-145.45;100.00;62759.84;5263780;28;20034;-88
2021/12/14 01:21:42;;;;;;;18.55;11.30;;;;;;;-145.45;100.00;62759.84;5265942;28;20046;-88
2021/12/14 01:24:35;;;;;;;14.35;11.25;;;;;;;-145.45;100.00;62759.84;5247117;28;20063;-88
2021/12/14 01:27:14;;;;;;;13.50;12.00;;;;;;;-145.45;100.00;62759.84;5264036;28;20037;-87
2021/12/14 01:29:48;;;;;;;12.82;10.90;;;;;;;-145.45;100.00;62759.84;5251638;28;20030;-87
2021/12/14 01:32:23;;;;;;;11.93;10.40;;;;;;;-145.45;100.00;62759.84;5249251;28;20078;-88
2021/12/14 01:34:55;;;;;;;13.60;10.82;;;;;;;-145.45;100.00;62759.84;5264238;28;20073;-87
2021/12/14 01:37:39;;;;;;;13.75;10.30;;;;;;;-145.45;100.00;62759.84;5256339;28;20010;-88
2021/12/14 01:40:19;;;;;;;14.50;10.85;;;;;;;-145.45;100.00;62759.84;5262768;28;20061;-88
2021/12/14 01:42:50;;;;;;;13.38;10.48;;;;;;;-145.45;100.00;62759.84;5261262;28;20072;-88
2021/12/14 01:45:23;;;;;;;12.25;9.15;;;;;;;-145.45;100.00;62759.84;5264194;28;20026;-90
2021/12/14 01:47:58;;;;;;;10.80;9.60;;;;;;;-145.45;100.00;62759.84;5255767;28;20034;-88
2021/12/14 01:50:43;;;;;;;10.90;9.02;;;;;;;-145.45;100.00;62759.84;5261585;28;20038;-88
2021/12/14 01:53:15;;;;;;;12.40;9.48;;;;;;;-145.45;100.00;62759.84;5264034;28;20038;-88
2021/12/14 01:55:53;;;;;;;10.38;8.48;;;;;;;-145.45;100.00;62759.84;5253188;28;20056;-89
2021/12/14 01:58:38;;;;;;;10.25;8.55;;;;;;;-145.45;100.00;62759.84;5248573;28;20030;-89
2021/12/14 02:01:28;;;;;;;9.88;8.30;;;;;;;-145.45;100.00;62759.84;5261864;28;20113;-89
2021/12/14 02:04:08;;;;;;;9.88;8.10;;;;;;;-145.45;100.00;62759.84;5250064;28;20090;-88
2021/12/14 02:06:40;;;;;;;10.68;8.02;;;;;;;-145.45;100.00;62759.84;5251120;28;20018;-88
2021/12/14 02:09:15;;;;;;;9.65;6.80;;;;;;;-145.45;100.00;62759.84;5264280;28;20053;-88
2021/12/14 02:11:54;;;;;;;10.35;7.88;;;;;;;-145.45;100.00;62759.84;5263874;28;20050;-87
2021/12/14 02:14:29;;;;;;;10.90;7.50;;;;;;;-145.45;100.00;62759.84;5246771;28;20065;-88
2021/12/14 02:17:06;;;;;;;9.52;7.78;;;;;;;-145.45;100.00;62759.84;5247652;28;20053;-88
2021/12/14 02:19:41;;;;;;;8.90;6.85;;;;;;;-145.45;100.00;62759.84;5247945;28;20036;-87
2021/12/14 02:22:16;;;;;;;7.50;6.63;;;;;;;-145.45;100.00;62759.84;5246229;28;20026;-87
2021/12/14 02:24:50;;;;;;;8.80;6.95;;;;;;;-145.45;100.00;62759.84;5248288;28;20034;-87
2021/12/14 02:27:22;;;;;;;10.10;6.85;;;;;;;-145.45;100.00;62759.84;5233221;28;20045;-88
2021/12/14 02:30:00;;;;;;;7.13;6.30;;;;;;;-145.45;100.00;62759.84;5251659;28;20049;-88
2021/12/14 02:32:32;;;;;;;6.97;6.25;;;;;;;-145.45;100.00;62759.84;5255001;28;20026;-88
2021/12/14 02:35:11;;;;;;;7.43;6.20;;;;;;;-145.45;100.00;62759.84;5259201;28;20025;-88
2021/12/14 02:37:56;;;;;;;10.13;6.60;;;;;;;-145.45;100.00;62759.84;5260975;28;20026;-87
2021/12/14 02:43:30;;;;;;;9.60;6.63;;;;;;;-145.45;100.00;62759.84;5268379;28;20014;-87
2021/12/14 02:46:16;;;;;;;8.05;6.40;;;;;;;-145.45;100.00;62759.84;5275465;28;20057;-88
2021/12/14 02:48:50;;;;;;;10.60;7.03;;;;;;;-145.45;100.00;62759.84;5268713;28;20033;-88
2021/12/14 02:51:30;;;;;;;8.35;6.63;;;;;;;-145.45;100.00;62759.84;5259919;28;20030;-87
2021/12/14 02:54:28;;;;;;;8.35;6.45;;;;;;;-145.45;100.00;62759.84;5259882;28;20029;-88
2021/12/14 02:57:11;;;;;;;8.93;6.55;;;;;;;-145.45;100.00;62759.84;5263886;28;20120;-88
2021/12/14 02:59:45;;;;;;;9.65;6.53;;;;;;;-145.45;100.00;62759.84;5231293;28;20034;-88
2021/12/14 03:02:22;;;;;;;10.60;6.65;;;;;;;-145.45;100.00;62759.84;5253818;28;20121;-88
2021/12/14 03:05:12;;;;;;;10.25;6.80;;;;;;;-145.45;100.00;62759.84;5238619;28;20064;-88
2021/12/14 03:07:50;;;;;;;9.85;6.47;;;;;;;-145.45;100.00;62759.84;5245627;28;20026;-88
2021/12/14 03:13:07;;;;;;;9.95;6.82;;;;;;;-145.45;100.00;62759.84;5244324;28;20075;-88
2021/12/14 03:15:52;;;;;;;8.38;6.68;;;;;;;-145.45;100.00;62759.84;5235396;28;20026;-88
2021/12/14 03:18:30;;;;;;;9.48;6.80;;;;;;;-145.45;100.00;62759.84;5241434;28;20113;-88
2021/12/14 03:21:07;;;;;;;9.85;7.25;;;;;;;-145.45;100.00;62759.84;5240746;28;20504;-88
2021/12/14 03:23:44;;;;;;;11.38;7.43;;;;;;;-145.45;100.00;62759.84;5231305;28;20030;-88
2021/12/14 03:26:19;;;;;;;11.63;7.80;;;;;;;-145.45;100.00;62759.84;5242865;28;20177;-88
2021/12/14 03:28:54;;;;;;;10.88;8.25;;;;;;;-145.45;100.00;62759.84;5242210;28;20430;-89
2021/12/14 03:31:38;;;;;;;11.05;8.32;;;;;;;-145.45;100.00;62759.84;5235944;28;20037;-88
2021/12/14 03:34:17;;;;;;;9.60;8.05;;;;;;;-145.45;100.00;62759.84;5241590;28;20482;-88
2021/12/14 03:37:00;;;;;;;12.05;8.93;;;;;;;-145.45;100.00;62759.84;5243503;28;20091;-88
2021/12/14 03:39:38;;;;;;;12.77;9.55;;;;;;;-145.45;100.00;62759.84;5213087;28;20148;-87
2021/12/14 03:42:24;;;;;;;11.32;8.18;;;;;;;-145.45;100.00;62759.84;5234535;28;20459;-89
2021/12/14 03:44:57;;;;;;;12.98;10.13;;;;;;;-145.45;100.00;62759.84;5242622;28;20049;-87
2021/12/14 03:47:33;;;;;;;12.52;10.32;;;;;;;-145.45;100.00;62759.84;5229730;28;20101;-87
2021/12/14 03:50:21;;;;;;;13.32;10.48;;;;;;;-145.45;100.00;62759.84;5226772;28;20550;-87
2021/12/14 03:52:52;;;;;;;15.40;11.13;;;;;;;-145.45;100.00;62759.84;5241072;28;20395;-87
2021/12/14 03:55:47;;;;;;;14.73;11.25;;;;;;;-145.45;100.00;62759.84;5229960;28;20025;-88
2021/12/14 03:58:26;;;;;;;14.50;11.15;;;;;;;-145.45;100.00;62759.84;5236294;28;20192;-88
2021/12/14 04:01:03;;;;;;;13.85;10.82;;;;;;;-145.45;100.00;62759.84;5221256;28;20029;-87
2021/12/14 04:03:37;;;;;;;17.70;11.85;;;;;;;-145.45;100.00;62759.84;5219669;28;20300;-87
2021/12/14 04:06:13;;;;;;;16.48;11.73;;;;;;;-145.45;100.00;62759.84;5220281;28;20042;-87
2021/12/14 04:08:46;;;;;;;17.52;12.65;;;;;;;-145.45;100.00;62759.84;5237489;28;20108;-88
2021/12/14 04:11:18;;;;;;;16.80;12.48;;;;;;;-145.45;100.00;62759.84;5243788;28;20026;-87
2021/12/14 04:13:53;;;;;;;15.77;12.02;;;;;;;-145.45;100.00;62759.84;5226461;28;20041;-87
2021/12/14 04:16:25;;;;;;;17.90;13.60;;;;;;;-145.45;100.00;62759.84;5239677;28;20022;-87
2021/12/14 04:19:03;;;;;;;18.67;12.38;;;;;;;-145.45;100.00;62759.84;5249919;28;20111;-87
2021/12/14 04:21:44;;;;;;;17.27;13.45;;;;;;;-145.45;100.00;62759.84;5232810;28;20110;-87
2021/12/14 04:24:21;;;;;;;18.10;13.18;;;;;;;-145.45;100.00;62759.84;5217640;28;20053;-87
2021/12/14 04:27:05;;;;;;;18.25;12.75;;;;;;;-145.45;100.00;62759.84;5235438;28;20049;-88
2021/12/14 04:29:39;;;;;;;19.13;13.13;;;;;;;-145.45;100.00;62759.84;5234721;28;20042;-87
2021/12/14 04:32:13;;;;;;;17.65;13.68;;;;;;;-145.45;100.00;62759.84;5234976;28;20034;-87
2021/12/14 04:34:46;;;;;;;20.52;13.65;;;;;;;-145.45;100.00;62759.84;5239751;28;20022;-87
2021/12/14 04:37:19;;;;;;;18.10;13.68;;;;;;;-145.45;100.00;62759.84;5241592;28;20037;-87
2021/12/14 04:40:10;;;;;;;18.83;13.13;;;;;;;-145.45;100.00;62759.84;5244239;28;20026;-87
2021/12/14 04:51:57;;;;;;;19.00;14.75;;;;;;;-145.45;100.00;62759.84;5241257;28;20034;-87
2021/12/14 04:54:11;;;;;;;20.67;15.32;;;;;;;-145.45;100.00;62759.84;5240704;28;20487;-87
2021/12/14 04:56:45;;;;;;;21.83;14.18;;;;;;;-145.45;100.00;62759.84;5228310;28;20036;-87
2021/12/14 04:59:27;;;;;;;21.20;14.75;;;;;;;-145.45;100.00;62759.84;5241160;28;20038;-87
2021/12/14 05:02:12;;;;;;;20.65;14.68;;;;;;;-145.45;100.00;62759.84;5238882;28;20041;-87
2021/12/14 05:04:47;;;;;;;23.10;15.40;;;;;;;-145.45;100.00;62759.84;5238754;28;20034;-87
2021/12/14 05:10:06;;;;;;;20.10;13.90;;;;;;;-145.45;100.00;62759.84;5235789;28;20045;-88
2021/12/14 05:12:38;;;;;;;21.08;15.02;;;;;;;-145.45;100.00;62759.84;5227699;28;20404;-88
2021/12/14 05:15:13;;;;;;;21.15;15.30;;;;;;;-145.45;100.00;62759.84;5250585;28;20034;-88
2021/12/14 05:17:48;;;;;;;22.25;15.50;;;;;;;-145.45;100.00;62759.84;5248194;28;20033;-88
2021/12/14 05:20:19;;;;;;;20.85;14.57;;;;;;;-145.45;100.00;62759.84;5216860;28;20037;-88
2021/12/14 05:22:51;;;;;;;24.17;15.70;;;;;;;-145.45;100.00;62759.84;5235091;28;20497;-88
2021/12/14 05:25:26;;;;;;;24.13;15.48;;;;;;;-145.45;100.00;62759.84;5228431;28;20137;-88
2021/12/14 05:28:01;;;;;;;24.57;15.07;;;;;;;-145.45;100.00;62759.84;5231226;28;20397;-88
2021/12/14 05:30:37;;;;;;;24.20;16.25;;;;;;;-145.45;100.00;62759.84;5236769;28;20034;-88
2021/12/14 05:33:32;;;;;;;22.10;15.07;;;;;;;-145.45;100.00;62759.84;5255634;28;20049;-88
2021/12/14 05:36:08;;;;;;;23.15;16.48;;;;;;;-145.45;100.00;62759.84;5244610;28;20037;-88
2021/12/14 05:39:18;;;;;;;28.65;16.85;;;;;;;-145.45;100.00;62759.84;5253419;28;20034;-88
2021/12/14 05:44:39;;;;;;;25.80;16.48;;;;;;;-145.45;100.00;62759.84;5243489;28;20027;-93
2021/12/14 05:47:20;;;;;;;26.17;17.33;;;;;;;-145.45;100.00;62759.84;5255023;28;20041;-95
2021/12/14 05:49:51;;;;;;;25.45;17.70;;;;;;;-145.45;100.00;62759.84;5252183;28;20106;-96
2021/12/14 05:52:26;;;;;;;24.63;17.48;;;;;;;-145.45;100.00;62759.84;5231522;28;20041;-94
2021/12/14 05:54:59;;;;;;;25.80;15.73;;;;;;;-145.45;100.00;62759.84;5266298;28;20060;-95
2021/12/14 05:57:33;;;;;;;26.02;17.70;;;;;;;-145.45;100.00;62759.84;5265275;28;20030;-96
2021/12/14 06:00:19;;;;;;;28.13;18.30;;;;;;;-145.45;100.00;62759.84;5229789;28;20099;-95
2021/12/14 06:02:51;;;;;;;27.70;18.10;;;;;;;-145.45;100.00;62759.84;5248146;28;20394;-94
2021/12/14 06:05:27;;;;;;;28.42;19.20;;;;;;;-145.45;100.00;62759.84;5249349;28;20030;-96
2021/12/14 06:07:59;;;;;;;28.30;17.83;;;;;;;-145.45;100.00;62759.84;5227796;28;20061;-94
2021/12/14 06:11:03;;;;;;;28.75;18.52;;;;;;;-145.45;100.00;62759.84;5224808;28;20533;-93
2021/12/14 06:13:42;;;;;;;29.77;18.17;;;;;;;-145.45;100.00;62759.84;5246720;28;20042;-95
2021/12/14 06:16:35;;;;;;;31.27;19.30;;;;;;;-145.45;100.00;62759.84;5229054;28;20026;-94
2021/12/14 06:19:17;;;;;;;30.00;19.05;;;;;;;-145.45;100.00;62759.84;5252172;28;20049;-95
2021/12/14 06:22:02;;;;;;;28.77;18.58;;;;;;;-145.45;100.00;62759.84;5234538;28;20368;-94
2021/12/14 06:24:38;;;;;;;27.83;18.42;;;;;;;-145.45;100.00;62759.84;5248782;28;20445;-95
2021/12/14 06:27:14;;;;;;;33.78;20.48;;;;;;;-145.45;100.00;62759.84;5245706;28;20087;-94
2021/12/14 06:29:51;;;;;;;;;;;;;;;-145.45;100.00;62759.84;5246575;28;20025;-94
2021/12/14 06:32:26;;;;;;;29.25;19.02;;;;;;;-145.45;100.00;62759.84;5246734;28;19909;-95
2021/12/14 06:35:15;;;;;;;30.23;20.40;;;;;;;-145.45;100.00;62759.84;5245585;28;20052;-94
2021/12/14 06:38:45;;;;;;;;;;;;;;;;;;;;;
2021/12/14 06:44:38;;;;;;;33.63;20.98;;;;;;;-145.45;100.00;62759.84;5197684;28;20066;-94
2021/12/14 06:47:10;;;;;;;34.85;20.95;;;;;;;-145.45;100.00;62759.84;5186098;28;20166;-93
2021/12/14 06:50:28;;;;;;;33.88;21.10;;;;;;;-145.45;100.00;62759.84;5202791;28;20476;-94
2021/12/14 06:53:52;;;;;;;36.92;21.67;;;;;;;-145.45;100.00;62759.84;5224668;28;20045;-93
2021/12/14 07:03:00;;;;;;;37.45;21.40;;;;;;;-145.45;100.00;62759.84;5245722;28;20034;-93
2021/12/14 07:05:32;;;;;;;35.55;21.10;;;;;;;-145.45;100.00;62759.84;5240736;28;20032;-93
2021/12/14 07:08:16;;;;;;;37.40;22.80;;;;;;;-145.45;100.00;62759.84;5244620;28;20030;-93
2021/12/14 07:10:51;;;;;;;37.40;23.27;;;;;;;-145.45;100.00;62759.84;5245807;28;20065;-93
2021/12/14 07:13:33;;;;;;;40.17;23.38;;;;;;;-145.45;100.00;62759.84;5246018;28;20050;-93
2021/12/14 07:16:19;;;;;;;37.47;22.60;;;;;;;-145.45;100.00;62759.84;5244505;28;20037;-94
2021/12/14 07:18:54;;;;;;;36.38;20.98;;;;;;;-145.45;100.00;62759.84;5247176;28;20029;-93
2021/12/14 07:21:40;;;;;;;37.53;22.45;;;;;;;-145.45;100.00;62759.84;5245535;28;20048;-95
2021/12/14 07:24:23;;;;;;;36.95;21.55;;;;;;;-145.45;100.00;62759.84;5242822;28;20030;-95
2021/12/14 07:27:24;;;;;;;36.85;23.73;;;;;;;-145.45;100.00;62759.84;5243787;28;20030;-94
2021/12/14 07:30:38;;;;;;;40.30;23.77;;;;;;;-145.45;100.00;62759.84;5244578;28;20065;-94
2021/12/14 07:33:22;;;;;;;39.40;22.08;;;;;;;-145.45;100.00;62759.84;5245729;28;20459;-94
2021/12/14 07:36:07;;;;;;;39.28;23.65;;;;;;;-145.45;100.00;62759.84;5243945;28;20475;-94
2021/12/14 07:38:52;;;;;;;44.10;23.90;;;;;;;-145.45;100.00;62759.84;5244707;28;20471;-94
2021/12/14 07:42:06;;;;;;;42.13;22.98;;;;;;;-145.45;100.00;62759.84;5244922;28;20117;-95
2021/12/14 07:44:39;;;;;;;36.42;21.33;;;;;;;-145.45;100.00;62759.84;5185488;28;20035;-94
2021/12/14 07:47:14;;;;;;;39.78;23.77;;;;;;;-145.45;100.00;62759.84;5205312;28;20031;-94
2021/12/14 07:49:55;;;;;;;40.33;24.33;;;;;;;-145.45;100.00;62759.84;5202440;28;20022;-95
2021/12/14 07:52:36;;;;;;;39.83;22.92;;;;;;;-145.45;100.00;62759.84;5188835;28;20079;-94
2021/12/14 07:55:19;;;;;;;40.17;23.23;;;;;;;-145.45;100.00;62759.84;5200386;28;20110;-94
2021/12/14 07:57:51;;;;;;;38.00;22.90;;;;;;;-145.45;100.00;62759.84;5200201;28;20042;-95
2021/12/14 08:00:35;;;;;;;40.33;24.42;;;;;;;-145.45;100.00;62759.84;5200878;28;20015;-94
2021/12/14 08:03:10;;;;;;;39.40;22.88;;;;;;;-145.45;100.00;62759.84;5183903;28;20177;-94
2021/12/14 08:05:46;;;;;;;41.70;24.65;;;;;;;-145.45;100.00;62759.84;5199728;28;20038;-94
2021/12/14 08:08:33;;;;;;;39.35;24.33;;;;;;;-145.45;100.00;62759.84;5182991;28;20523;-94
2021/12/14 08:14:25;;;;;;;39.03;23.02;;;;;;;-145.45;100.00;62759.84;5165324;28;20047;-96
2021/12/14 08:17:12;;;;;;;41.05;24.67;;;;;;;-145.45;100.00;62759.84;5179868;28;20042;-96
2021/12/14 08:19:44;;;;;;;42.58;24.75;;;;;;;-145.45;100.00;62759.84;5210436;28;20463;-95
2021/12/14 08:22:32;;;;;;;42.00;24.23;;;;;;;-145.45;100.00;62759.84;5211303;28;20022;-95
2021/12/14 08:25:14;;;;;;;40.15;24.10;;;;;;;-145.45;100.00;62759.84;5224780;28;20027;-95
2021/12/14 08:27:46;;;;;;;43.40;25.08;;;;;;;-145.45;100.00;62759.84;5242904;28;20026;-95
2021/12/14 08:30:17;;;;;;;40.92;24.83;;;;;;;-145.45;100.00;62759.84;5247578;28;20030;-95
2021/12/14 08:32:49;;;;;;;39.63;24.70;;;;;;;-145.45;100.00;62759.84;5230802;28;20041;-95
2021/12/14 08:35:21;;;;;;;44.20;26.80;;;;;;;-145.45;100.00;62759.84;5264654;28;20026;-96
2021/12/14 08:37:58;;;;;;;44.00;25.42;;;;;;;-145.45;100.00;62759.84;5261601;28;20074;-94
2021/12/14 08:40:40;;;;;;;42.72;25.85;;;;;;;-145.45;100.00;62759.84;5255429;28;20021;-96
2021/12/14 08:43:26;;;;;;;43.47;25.35;;;;;;;-145.45;100.00;62759.84;5228165;28;20041;-96
2021/12/14 08:46:43;;;;;;;42.78;26.08;;;;;;;-145.45;100.00;62759.84;5244569;28;20043;-96
2021/12/14 08:49:23;;;;;;;43.65;24.92;;;;;;;-145.45;100.00;62759.84;5216508;28;20351;-95
2021/12/14 08:51:54;;;;;;;43.70;24.23;;;;;;;-145.45;100.00;62759.84;5245601;28;20078;-96
2021/12/14 08:54:31;;;;;;;39.33;25.25;;;;;;;-145.45;100.00;62759.84;5243484;28;20112;-95
2021/12/14 08:57:18;;;;;;;44.20;25.20;;;;;;;-145.45;100.00;62759.84;5227999;28;20113;-96
2021/12/14 09:00:12;;;;;;;42.47;24.33;;;;;;;-145.45;100.00;62759.84;5232949;28;20048;-96
2021/12/14 09:02:46;;;;;;;44.22;24.13;;;;;;;-145.45;100.00;62759.84;5231761;23;20046;-86
2021/12/14 09:05:38;;;;;;;52.30;27.45;;;;;;;-145.45;100.00;62759.84;5221391;28;20034;-85
2021/12/14 09:08:10;;;;;;;40.67;23.65;;;;;;;-145.45;100.00;62759.84;5220876;28;20035;-86
2021/12/14 09:10:44;;;;;;;43.13;26.52;;;;;;;-145.45;100.00;62759.84;5221799;28;20026;-85
2021/12/14 09:13:16;;;;;;;48.75;26.88;;;;;;;-145.45;100.00;62759.84;5223806;28;20097;-86
2021/12/14 09:15:53;;;;;;;39.65;25.60;;;;;;;-145.45;100.00;62759.84;5211358;28;20117;-85
2021/12/14 09:18:29;;;;;;;39.20;26.27;;;;;;;-145.45;100.00;62759.84;5219084;28;20041;-86
2021/12/14 09:21:20;;;;;;;35.58;24.88;;;;;;;-145.45;100.00;62759.84;5232092;28;20041;-86
2021/12/14 09:24:00;;;;;;;38.60;24.95;;;;;;;-145.45;100.00;62759.84;5230631;28;20115;-85
2021/12/14 09:26:35;;;;;;;41.40;25.42;;;;;;;-145.45;100.00;62759.84;5244771;28;20034;-86
2021/12/14 09:29:11;;;;;;;39.72;25.60;;;;;;;-145.45;100.00;62759.84;5211328;28;20026;-85
2021/12/14 09:31:47;;;;;;;34.72;24.95;;;;;;;-145.45;100.00;62759.84;5221309;28;20022;-86
2021/12/14 09:34:23;;;;;;;36.33;23.85;;;;;;;-145.45;100.00;62759.84;5219112;28;20031;-86
2021/12/14 09:36:56;;;;;;;38.38;26.85;;;;;;;-145.45;100.00;62759.84;5214436;28;20031;-86
2021/12/14 09:39:34;;;;;;;37.25;25.30;;;;;;;-145.45;100.00;62759.84;5220251;28;20023;-85
2021/12/14 09:42:10;;;;;;;41.30;27.50;;;;;;;-145.45;100.00;62759.84;5215969;28;20038;-86
2021/12/14 09:44:43;;;;;;;37.38;23.67;;;;;;;-145.45;100.00;62759.84;5220548;28;20018;-86
2021/12/14 09:47:21;;;;;;;39.25;25.92;;;;;;;-145.45;100.00;62759.84;5201180;28;20038;-86
2021/12/14 09:49:54;;;;;;;35.63;24.85;;;;;;;-145.45;100.00;62759.84;5232428;28;20364;-86
2021/12/14 09:52:29;;;;;;;39.05;26.50;;;;;;;-145.45;100.00;62759.84;5235465;28;20036;-86
2021/12/14 09:55:04;;;;;;;38.58;26.27;;;;;;;-145.45;100.00;62759.84;5216437;28;20037;-86
2021/12/14 09:57:42;;;;;;;34.75;24.77;;;;;;;-145.45;100.00;62759.84;5224143;28;20118;-86
2021/12/14 10:00:19;;;;;;;37.53;26.30;;;;;;;-145.45;100.00;62759.84;5219728;28;20471;-85
2021/12/14 10:02:54;;;;;;;39.42;27.48;;;;;;;-145.45;100.00;62759.84;5217891;28;20105;-85
2021/12/14 10:05:33;;;;;;;36.97;24.30;;;;;;;-145.45;100.00;62759.84;5222053;28;20027;-86
2021/12/14 10:08:14;;;;;;;35.17;25.83;;;;;;;-145.45;100.00;62759.84;5222345;28;20045;-86
2021/12/14 10:11:01;;;;;;;36.42;24.48;;;;;;;-145.45;100.00;62759.84;5240901;28;20022;-86
2021/12/14 10:13:37;;;;;;;38.00;26.20;;;;;;;-145.45;100.00;62759.84;5227714;28;20105;-86
2021/12/14 10:16:12;;;;;;;38.22;25.80;;;;;;;-145.45;100.00;62759.84;5218978;28;20074;-85
2021/12/14 10:18:54;;;;;;;36.33;25.45;;;;;;;-145.45;100.00;62759.84;5218728;28;20093;-86
2021/12/14 10:21:29;;;;;;;34.47;24.02;;;;;;;-145.45;100.00;62759.84;5233151;28;20041;-86
2021/12/14 10:24:03;;;;;;;37.83;24.48;;;;;;;-145.45;100.00;62759.84;5198927;28;20113;-85
2021/12/14 10:26:38;;;;;;;38.15;24.63;;;;;;;-145.45;100.00;62759.84;5198974;28;20395;-86
2021/12/14 10:29:10;;;;;;;33.15;23.42;;;;;;;-145.45;100.00;62759.84;5218879;28;20053;-86
2021/12/14 10:31:50;;;;;;;34.67;25.42;;;;;;;-145.45;100.00;62759.84;5241233;28;20093;-86
2021/12/14 10:34:24;;;;;;;39.35;26.02;;;;;;;-145.45;100.00;62759.84;5205326;28;20030;-86
2021/12/14 10:37:08;;;;;;;38.90;25.50;;;;;;;-145.45;100.00;62759.84;5221414;28;20057;-86
2021/12/14 10:42:40;;;;;;;40.33;28.52;;;;;;;-145.45;100.00;62759.84;5222607;28;20049;-86
2021/12/14 10:45:25;;;;;;;35.55;24.80;;;;;;;-145.45;100.00;62759.84;5223073;28;20566;-86
2021/12/14 10:47:57;;;;;;;37.20;23.95;;;;;;;-145.45;100.00;62759.84;5203738;28;20050;-86
2021/12/14 10:50:31;;;;;;;37.05;25.23;;;;;;;-145.45;100.00;62759.84;5221575;28;20064;-86
2021/12/14 10:53:07;;;;;;;39.92;25.88;;;;;;;-145.45;100.00;62759.84;5200204;28;20038;-86
2021/12/14 10:56:09;;;;;;;42.15;25.75;;;;;;;-145.45;100.00;62759.84;5233633;28;20022;-86
2021/12/14 10:58:45;;;;;;;41.17;27.73;;;;;;;-145.45;100.00;62759.84;5220011;28;20531;-86
2021/12/14 11:01:27;;;;;;;38.83;24.75;;;;;;;-145.45;100.00;62759.84;5223442;28;20487;-86
2021/12/14 11:04:03;;;;;;;41.42;26.65;;;;;;;-145.45;100.00;62759.84;5223941;28;20413;-85
2021/12/14 11:06:38;;;;;;;43.42;27.17;;;;;;;-145.45;100.00;62759.84;5222497;28;20084;-85
2021/12/14 11:11:59;;;;;;;45.05;27.40;;;;;;;-145.45;100.00;62759.84;5221903;28;20026;-85
2021/12/14 11:14:35;;;;;;;39.95;27.50;;;;;;;-145.45;100.00;62759.84;5222347;28;20025;-86
2021/12/14 11:20:07;;;;;;;43.05;27.33;;;;;;;-145.45;100.00;62759.84;5227966;28;20031;-86
2021/12/14 11:23:02;;;;;;;35.47;25.98;;;;;;;-145.45;100.00;62759.84;5232039;28;20045;-86
2021/12/14 11:25:55;;;;;;;36.30;25.45;;;;;;;-145.45;100.00;62759.84;5221773;28;20340;-86
2021/12/14 11:28:42;;;;;;;39.53;25.02;;;;;;;-145.45;100.00;62759.84;5219814;28;20499;-86
2021/12/14 11:31:23;;;;;;;;;;;;;;;-145.45;100.00;62759.84;5191373;28;20484;-86
2021/12/14 11:34:04;;;;;;;40.10;26.95;;;;;;;-145.45;100.00;62759.84;5201654;28;20306;-85
2021/12/14 11:36:42;;;;;;;40.45;25.58;;;;;;;-145.45;100.00;62759.84;5218298;28;20030;-86
2021/12/14 11:39:25;;;;;;;37.60;26.27;;;;;;;-145.45;100.00;62759.84;5230204;28;20044;-86
2021/12/14 11:41:58;;;;;;;39.55;26.50;;;;;;;-145.45;100.00;62759.84;5228588;28;20109;-86
2021/12/14 11:44:47;;;;;;;42.85;27.52;;;;;;;-145.45;100.00;62759.84;5220290;28;20054;-86
2021/12/14 11:50:21;;;;;;;41.50;27.10;;;;;;;-145.45;100.00;62759.84;5230771;28;20033;-85
2021/12/14 11:53:14;;;;;;;40.17;27.20;;;;;;;-145.45;100.00;62759.84;5234609;28;20387;-86
2021/12/14 11:56:00;;;;;;;46.28;28.65;;;;;;;-145.45;100.00;62759.84;5221835;28;20096;-86
2021/12/14 11:58:38;;;;;;;46.13;27.85;;;;;;;-145.45;100.00;62759.84;5220506;28;20048;-86
2021/12/14 12:01:33;;;;;;;41.28;27.70;;;;;;;-145.45;100.00;62759.84;5225153;28;20030;-86
2021/12/14 12:04:12;;;;;;;43.72;30.13;;;;;;;-145.45;100.00;62759.84;5217296;28;20524;-85
2021/12/14 12:09:39;;;;;;;47.42;28.10;;;;;;;-145.45;100.00;62759.84;5241740;28;20034;-86
2021/12/14 12:12:21;;;;;;;47.63;31.50;;;;;;;-145.45;100.00;62759.84;5241326;28;20024;-86
2021/12/14 12:15:01;;;;;;;44.28;29.38;;;;;;;-145.45;100.00;62759.84;5240038;28;20022;-86
2021/12/14 12:17:40;;;;;;;47.10;29.27;;;;;;;-145.45;100.00;62759.84;5239955;28;20033;-87
2021/12/14 12:20:41;;;;;;;45.80;29.65;;;;;;;-145.45;100.00;62759.84;5240026;28;20386;-86
2021/12/14 12:23:21;;;;;;;49.90;31.23;;;;;;;-145.45;100.00;62759.84;5238024;28;20026;-85
2021/12/14 12:25:59;;;;;;;50.25;30.38;;;;;;;-145.45;100.00;62759.84;5238276;28;20026;-86
2021/12/14 12:28:43;;;;;;;53.20;30.55;;;;;;;-145.45;100.00;62759.84;5240940;28;20129;-86
2021/12/14 12:31:19;;;;;;;49.50;31.10;;;;;;;-145.45;100.00;62759.84;5237061;28;20093;-86
2021/12/14 12:33:54;;;;;;;51.47;31.67;;;;;;;-145.45;100.00;62759.84;5240929;28;20026;-86
2021/12/14 12:36:32;;;;;;;50.28;30.85;;;;;;;-145.45;100.00;62759.84;5222805;28;20041;-86
2021/12/14 12:39:06;;;;;;;51.58;32.28;;;;;;;-145.45;100.00;62759.84;5241725;28;20366;-86
2021/12/14 12:41:52;;;;;;;52.72;33.47;;;;;;;-145.45;100.00;62759.84;5213558;28;20044;-86
2021/12/14 12:44:37;;;;;;;49.58;31.58;;;;;;;-145.45;100.00;62759.84;5200448;28;20031;-86
2021/12/14 12:47:19;;;;;;;47.17;31.13;;;;;;;-145.45;100.00;62759.84;5202078;28;20030;-86
2021/12/14 12:49:56;;;;;;;49.67;31.42;;;;;;;-145.45;100.00;62759.84;5211108;28;20029;-86